Time;durP1;ratioP1;P1;durP2;ratioP2;P2;SDS_P1;SDS_P2;PMS_P1;PMS_P2;Temp;Humidity;BMP_temperature;BMP_pressure;BME280_temperature;BME280_humidity;BME280_pressure;Samples;Min_cycle;Max_cycle;Signal;HPM_P1;HPM_P2
2022/12/12 00:02:24;;;;;;;19.48;9.02;;;1.50;99.90;;;;;;5071356;28;20033;-71
2022/12/12 00:04:50;;;;;;;19.38;9.57;;;1.40;99.90;;;;;;5070095;28;20040;-71
2022/12/12 00:07:15;;;;;;;22.17;9.63;;;1.50;99.90;;;;;;5070809;28;20040;-71
2022/12/12 00:09:41;;;;;;;22.38;9.35;;;1.40;99.90;;;;;;5070559;28;20090;-71
2022/12/12 00:12:07;;;;;;;22.35;9.48;;;1.50;99.90;;;;;;5070680;28;20040;-72
2022/12/12 00:14:33;;;;;;;22.23;10.05;;;1.50;99.90;;;;;;5070078;28;20093;-71
2022/12/12 00:16:58;;;;;;;19.85;8.93;;;1.50;99.90;;;;;;5070861;28;20492;-72
2022/12/12 00:19:24;;;;;;;21.83;9.02;;;1.50;99.90;;;;;;5052587;28;20040;-70
2022/12/12 00:21:49;;;;;;;19.27;9.32;;;1.60;99.90;;;;;;5071004;28;20182;-71
2022/12/12 00:24:15;;;;;;;19.25;9.27;;;1.50;99.90;;;;;;5051926;28;20051;-70
2022/12/12 00:26:41;;;;;;;21.45;9.77;;;1.50;99.90;;;;;;5070415;28;20044;-70
2022/12/12 00:29:06;;;;;;;20.35;9.48;;;1.50;99.90;;;;;;5052901;28;20045;-68
2022/12/12 00:31:32;;;;;;;21.98;9.88;;;1.50;99.90;;;;;;5070618;28;20047;-68
2022/12/12 00:33:58;;;;;;;18.73;8.68;;;1.50;99.90;;;;;;5069999;28;20040;-69
2022/12/12 00:36:27;;;;;;;17.52;9.18;;;1.50;99.90;;;;;;5070424;28;20094;-69
2022/12/12 00:38:53;;;;;;;17.92;8.68;;;1.50;99.90;;;;;;5070656;28;20044;-69
2022/12/12 00:41:20;;;;;;;19.05;9.38;;;1.50;99.90;;;;;;5068936;28;20056;-69
2022/12/12 00:43:46;;;;;;;21.60;9.80;;;1.50;99.90;;;;;;5068406;28;20405;-67
2022/12/12 00:46:14;;;;;;;18.30;8.35;;;1.50;99.90;;;;;;5070420;28;20112;-67
2022/12/12 00:48:39;;;;;;;19.13;8.82;;;1.60;99.90;;;;;;5052214;28;20049;-67
2022/12/12 00:51:08;;;;;;;17.55;8.80;;;1.60;99.90;;;;;;5070506;28;20033;-67
2022/12/12 00:53:37;;;;;;;16.88;8.95;;;1.60;99.90;;;;;;5070302;28;20543;-67
2022/12/12 00:56:03;;;;;;;17.92;9.48;;;1.60;99.90;;;;;;5069465;28;20037;-67
2022/12/12 00:58:29;;;;;;;20.60;9.70;;;1.60;99.90;;;;;;5070186;28;20044;-67
2022/12/12 01:00:55;;;;;;;18.83;9.15;;;1.60;99.90;;;;;;5070260;28;20078;-67
2022/12/12 01:03:20;;;;;;;17.58;9.10;;;1.60;99.90;;;;;;5072506;28;20032;-67
2022/12/12 01:05:46;;;;;;;18.73;8.57;;;1.50;99.90;;;;;;5073065;28;20032;-67
2022/12/12 01:08:12;;;;;;;22.25;10.13;;;1.50;99.90;;;;;;5074026;28;20503;-67
2022/12/12 01:10:38;;;;;;;16.13;7.63;;;1.50;99.90;;;;;;5074058;28;20036;-66
2022/12/12 01:13:04;;;;;;;17.55;8.68;;;1.60;99.90;;;;;;5074102;28;20504;-69
2022/12/12 01:15:29;;;;;;;21.25;9.00;;;1.60;99.90;;;;;;5055048;28;20059;-68
2022/12/12 01:17:55;;;;;;;16.70;8.57;;;1.70;99.90;;;;;;5073804;28;20041;-69
2022/12/12 01:20:24;;;;;;;18.35;8.80;;;1.60;99.90;;;;;;5073824;28;20441;-68
2022/12/12 01:22:50;;;;;;;17.42;8.20;;;1.60;99.90;;;;;;5073652;28;20157;-69
2022/12/12 01:25:16;;;;;;;15.57;8.38;;;1.60;99.90;;;;;;5072717;28;20062;-68
2022/12/12 01:27:44;;;;;;;19.70;8.60;;;1.60;99.90;;;;;;5073344;28;20032;-69
2022/12/12 01:30:12;;;;;;;15.43;7.53;;;1.60;99.90;;;;;;5073717;28;20052;-68
2022/12/12 01:32:38;;;;;;;15.50;7.30;;;1.60;99.90;;;;;;5073545;28;20040;-69
2022/12/12 01:35:07;;;;;;;15.63;7.53;;;1.50;99.90;;;;;;5072805;28;20374;-69
2022/12/12 01:37:34;;;;;;;18.25;8.65;;;1.60;99.90;;;;;;5073179;28;20493;-69
2022/12/12 01:39:59;;;;;;;20.52;8.45;;;1.50;99.90;;;;;;5073511;28;20574;-69
2022/12/12 01:42:25;;;;;;;18.25;9.02;;;1.50;99.90;;;;;;5073428;28;20124;-69
2022/12/12 01:44:52;;;;;;;18.33;8.73;;;1.50;99.90;;;;;;5072733;28;20036;-69
2022/12/12 01:47:20;;;;;;;18.60;9.10;;;1.50;99.90;;;;;;5073306;28;20048;-69
2022/12/12 01:49:55;;;;;;;18.50;9.48;;;1.60;99.90;;;;;;5073307;28;20037;-68
2022/12/12 01:52:25;;;;;;;20.95;9.23;;;1.60;99.90;;;;;;5073208;28;20044;-68
2022/12/12 01:54:55;;;;;;;17.25;7.35;;;1.50;99.90;;;;;;5072529;28;20119;-69
2022/12/12 01:57:30;;;;;;;15.50;7.97;;;1.50;99.90;;;;;;5073082;28;20033;-69
2022/12/12 01:59:58;;;;;;;17.20;8.73;;;1.50;99.90;;;;;;5072962;28;20101;-69
2022/12/12 02:02:24;;;;;;;22.27;10.13;;;1.50;99.90;;;;;;5054941;28;20044;-69
2022/12/12 02:04:49;;;;;;;22.00;9.45;;;1.50;99.90;;;;;;5072087;28;20048;-69
2022/12/12 02:07:16;;;;;;;17.38;8.10;;;1.50;99.90;;;;;;5072946;28;20037;-69
2022/12/12 02:09:42;;;;;;;16.83;8.55;;;1.50;99.90;;;;;;5073118;28;20048;-69
2022/12/12 02:12:12;;;;;;;18.83;8.95;;;1.50;99.90;;;;;;5072743;28;20032;-69
2022/12/12 02:14:42;;;;;;;17.85;8.88;;;1.40;99.90;;;;;;5071667;28;20072;-69
2022/12/12 02:17:16;;;;;;;17.23;8.80;;;1.50;99.90;;;;;;5072667;28;20048;-69
2022/12/12 02:20:17;;;;;;;17.20;8.50;;;1.50;99.90;;;;;;5071266;28;20051;-69
2022/12/12 02:23:10;;;;;;;16.90;7.65;;;1.50;99.90;;;;;;5072747;28;20037;-69
2022/12/12 02:25:38;;;;;;;16.25;7.55;;;1.50;99.90;;;;;;5071915;28;20032;-68
2022/12/12 02:28:31;;;;;;;15.07;8.20;;;1.50;99.90;;;;;;5072553;28;20051;-69
2022/12/12 02:31:21;;;;;;;15.82;8.15;;;1.50;99.90;;;;;;5071052;28;20109;-68
2022/12/12 02:34:02;;;;;;;17.25;8.52;;;1.50;99.90;;;;;;5071606;28;20405;-68
2022/12/12 02:36:58;;;;;;;20.40;8.60;;;1.40;99.90;;;;;;5072328;28;20048;-68
2022/12/12 02:39:45;;;;;;;16.40;7.72;;;1.50;99.90;;;;;;5072416;28;20076;-69
2022/12/12 02:42:33;;;;;;;20.98;9.02;;;1.50;99.90;;;;;;5072185;28;20346;-69
2022/12/12 02:45:04;;;;;;;17.77;8.63;;;1.40;99.90;;;;;;5071326;28;20120;-69
2022/12/12 02:47:34;;;;;;;18.35;9.27;;;1.50;99.90;;;;;;5070601;28;20413;-68
2022/12/12 02:50:22;;;;;;;18.50;8.85;;;1.40;99.90;;;;;;5071965;28;20060;-69
2022/12/12 02:52:48;;;;;;;19.02;8.43;;;1.40;99.90;;;;;;5071913;28;20043;-68
2022/12/12 02:55:14;;;;;;;17.85;8.63;;;1.50;99.90;;;;;;5071463;28;20393;-69
2022/12/12 02:57:40;;;;;;;17.88;9.32;;;1.40;99.90;;;;;;5071462;28;20070;-68
2022/12/12 03:00:08;;;;;;;20.92;9.85;;;1.40;99.90;;;;;;5071974;28;20045;-69
2022/12/12 03:02:37;;;;;;;19.63;8.88;;;1.40;99.90;;;;;;5071687;28;20115;-68
2022/12/12 03:08:30;;;;;;;19.17;8.90;;;1.40;99.90;;;;;;5071568;28;20127;-68
2022/12/12 03:11:04;;;;;;;16.95;8.75;;;1.50;99.90;;;;;;5071707;28;20048;-68
2022/12/12 03:13:39;;;;;;;19.45;8.65;;;1.40;99.90;;;;;;5071388;28;20070;-69
2022/12/12 03:16:21;;;;;;;23.58;9.70;;;1.40;99.90;;;;;;5069663;28;20173;-68
2022/12/12 03:19:04;;;;;;;19.42;9.20;;;1.40;99.90;;;;;;5071465;28;20120;-69
2022/12/12 03:21:47;;;;;;;19.70;9.32;;;1.40;99.90;;;;;;5071420;28;20044;-68
2022/12/12 03:24:27;;;;;;;19.40;9.15;;;1.40;99.90;;;;;;5070646;28;20040;-69
2022/12/12 03:26:54;;;;;;;19.08;9.75;;;1.40;99.90;;;;;;5070563;28;20044;-69
2022/12/12 03:29:26;;;;;;;18.95;8.50;;;1.40;99.90;;;;;;5071448;28;20044;-69
2022/12/12 03:31:58;;;;;;;18.65;9.50;;;1.40;99.90;;;;;;5071179;28;20036;-69
2022/12/12 03:34:30;;;;;;;20.60;9.02;;;1.40;99.90;;;;;;5070358;28;20044;-69
2022/12/12 03:37:09;;;;;;;18.33;9.15;;;1.40;99.90;;;;;;5071079;28;20070;-69
2022/12/12 03:39:51;;;;;;;19.27;9.23;;;1.40;99.90;;;;;;5069888;28;20044;-69
2022/12/12 03:42:33;;;;;;;21.20;9.18;;;1.40;99.90;;;;;;5071323;28;20036;-69
2022/12/12 03:45:11;;;;;;;17.38;8.95;;;1.40;99.90;;;;;;5070560;28;20043;-69
2022/12/12 03:47:53;;;;;;;15.50;8.38;;;1.50;99.90;;;;;;5071145;28;20037;-69
2022/12/12 03:50:21;;;;;;;18.50;9.60;;;1.50;99.90;;;;;;5071182;28;20045;-68
2022/12/12 03:53:02;;;;;;;19.92;9.45;;;1.50;99.90;;;;;;5070835;28;20052;-69
2022/12/12 03:55:41;;;;;;;23.02;9.05;;;1.50;99.90;;;;;;5070425;28;20043;-68
2022/12/12 03:58:29;;;;;;;18.05;8.85;;;1.50;99.90;;;;;;5070870;28;20155;-69
2022/12/12 04:00:57;;;;;;;19.60;9.38;;;1.50;99.90;;;;;;5070825;28;20496;-68
2022/12/12 04:03:43;;;;;;;19.50;8.77;;;1.50;99.90;;;;;;5070926;28;20040;-69
2022/12/12 04:06:34;;;;;;;17.23;9.00;;;1.50;99.90;;;;;;5071007;28;20036;-69
2022/12/12 04:15:14;;;;;;;20.70;9.73;;;1.50;99.90;;;;;;5070181;28;20049;-68
2022/12/12 04:17:52;;;;;;;25.30;10.13;;;1.50;99.90;;;;;;5052450;28;20075;-68
2022/12/12 04:23:21;;;;;;;19.52;9.38;;;1.50;99.90;;;;;;5070563;28;20501;-69
2022/12/12 04:29:00;;;;;;;19.88;9.35;;;1.50;99.90;;;;;;5070912;28;20041;-69
2022/12/12 04:31:27;;;;;;;19.65;9.52;;;1.50;99.90;;;;;;5069339;28;20091;-69
2022/12/12 04:33:59;;;;;;;19.85;10.10;;;1.50;99.90;;;;;;5070024;28;20397;-69
2022/12/12 04:36:25;;;;;;;20.70;9.68;;;1.50;99.90;;;;;;5070823;28;20074;-69
2022/12/12 04:38:52;;;;;;;22.23;10.32;;;1.50;99.90;;;;;;5072202;28;20045;-67
2022/12/12 04:41:20;;;;;;;19.98;9.48;;;1.50;99.90;;;;;;5074337;28;20062;-66
2022/12/12 04:43:48;;;;;;;22.20;10.43;;;1.50;99.90;;;;;;5073714;28;20074;-66
2022/12/12 04:46:19;;;;;;;20.95;9.65;;;1.50;99.90;;;;;;5074483;28;20037;-67
2022/12/12 04:48:57;;;;;;;18.45;9.27;;;1.50;99.90;;;;;;5074464;28;20037;-67
2022/12/12 04:51:35;;;;;;;21.40;9.73;;;1.50;99.90;;;;;;5073226;28;20401;-67
2022/12/12 04:54:07;;;;;;;20.67;10.90;;;1.50;99.90;;;;;;5073725;28;20070;-66
2022/12/12 04:56:36;;;;;;;20.13;9.43;;;1.60;99.90;;;;;;5074210;28;20044;-69
2022/12/12 04:59:03;;;;;;;17.95;8.73;;;1.50;99.90;;;;;;5074333;28;20048;-69
2022/12/12 05:02:04;;;;;;;19.83;8.48;;;1.50;99.90;;;;;;5074510;28;20044;-69
2022/12/12 05:04:41;;;;;;;16.73;8.85;;;1.60;99.90;;;;;;5034104;28;20059;-69
2022/12/12 05:07:11;;;;;;;19.35;8.98;;;1.50;99.90;;;;;;5018208;28;20118;-69
2022/12/12 05:09:38;;;;;;;17.30;8.43;;;1.50;99.90;;;;;;5051340;28;20049;-69
2022/12/12 05:12:04;;;;;;;16.70;9.07;;;1.50;99.90;;;;;;5051264;28;20409;-69
2022/12/12 05:14:30;;;;;;;19.13;8.95;;;1.50;99.90;;;;;;5033826;28;20060;-69
2022/12/12 05:17:02;;;;;;;22.05;9.77;;;1.50;99.90;;;;;;5051221;28;20049;-69
2022/12/12 05:19:28;;;;;;;20.10;8.70;;;1.40;99.90;;;;;;5051292;28;20045;-69
2022/12/12 05:21:53;;;;;;;20.70;9.57;;;1.50;99.90;;;;;;5051139;28;20583;-69
2022/12/12 05:24:19;;;;;;;18.60;10.45;;;1.50;99.90;;;;;;5017147;28;20053;-68
2022/12/12 05:26:44;;;;;;;16.90;8.15;;;1.50;99.90;;;;;;5051035;28;20140;-68
2022/12/12 05:29:10;;;;;;;20.35;9.35;;;1.50;99.90;;;;;;5051005;28;20045;-69
2022/12/12 05:31:36;;;;;;;25.33;10.30;;;1.50;99.90;;;;;;5017754;28;20051;-69
2022/12/12 05:34:02;;;;;;;20.08;9.77;;;1.50;99.90;;;;;;5050142;28;20048;-69
2022/12/12 05:36:28;;;;;;;18.13;9.18;;;1.50;99.90;;;;;;5050899;28;20044;-68
2022/12/12 05:38:54;;;;;;;16.45;8.60;;;1.50;99.90;;;;;;5050682;28;20048;-68
2022/12/12 05:41:19;;;;;;;18.35;9.00;;;1.40;99.90;;;;;;5066780;28;20048;-69
2022/12/12 05:43:45;;;;;;;17.30;8.73;;;1.40;99.90;;;;;;5072379;28;20036;-68
2022/12/12 05:46:11;;;;;;;19.42;9.10;;;1.40;99.90;;;;;;5071907;28;20086;-69
2022/12/12 05:48:36;;;;;;;18.77;8.63;;;1.40;99.90;;;;;;5072818;28;20066;-69
2022/12/12 05:51:02;;;;;;;17.05;8.55;;;1.40;99.90;;;;;;5072928;28;20497;-66
2022/12/12 05:53:29;;;;;;;18.15;8.60;;;1.40;99.90;;;;;;5073007;28;20480;-67
2022/12/12 05:55:55;;;;;;;20.08;8.82;;;1.40;99.90;;;;;;5072588;28;20067;-66
2022/12/12 05:58:20;;;;;;;20.08;9.15;;;1.40;99.90;;;;;;5072904;28;20401;-68
2022/12/12 06:00:47;;;;;;;19.45;9.05;;;1.40;99.90;;;;;;5073089;28;20044;-69
2022/12/12 06:03:14;;;;;;;20.08;8.90;;;1.40;99.90;;;;;;5072989;28;20137;-69
2022/12/12 06:05:40;;;;;;;20.27;9.07;;;1.40;99.90;;;;;;5072155;28;20068;-68
2022/12/12 06:08:05;;;;;;;16.80;8.43;;;1.40;99.90;;;;;;5072909;28;20149;-69
2022/12/12 06:10:31;;;;;;;18.80;9.27;;;1.40;99.90;;;;;;5072732;28;20040;-68
2022/12/12 06:12:56;;;;;;;14.65;8.88;;;1.40;99.90;;;;;;5055038;28;20044;-69
2022/12/12 06:15:22;;;;;;;18.80;8.68;;;1.40;99.90;;;;;;5071855;28;20201;-68
2022/12/12 06:17:50;;;;;;;19.75;9.20;;;1.40;99.90;;;;;;5072905;28;20241;-68
2022/12/12 06:20:16;;;;;;;19.98;9.38;;;1.30;99.90;;;;;;5072604;28;20421;-66
2022/12/12 06:22:42;;;;;;;21.52;9.30;;;1.40;99.90;;;;;;5072609;28;20036;-68
2022/12/12 06:25:08;;;;;;;19.85;9.00;;;1.40;99.90;;;;;;5071638;28;20043;-69
2022/12/12 06:27:33;;;;;;;19.38;8.32;;;1.30;99.90;;;;;;5054439;28;20051;-69
2022/12/12 06:29:59;;;;;;;18.63;10.52;;;1.30;99.90;;;;;;5072544;28;20416;-69
2022/12/12 06:32:24;;;;;;;20.25;8.82;;;1.30;99.90;;;;;;5072306;28;20052;-69
2022/12/12 06:34:50;;;;;;;21.85;9.85;;;1.30;99.90;;;;;;5072004;28;20029;-69
2022/12/12 06:37:16;;;;;;;20.92;9.77;;;1.40;99.90;;;;;;5072421;28;20566;-69
2022/12/12 06:39:41;;;;;;;21.20;10.10;;;1.40;99.90;;;;;;5072185;28;20024;-69
2022/12/12 06:42:07;;;;;;;21.77;9.95;;;1.40;99.90;;;;;;5072266;28;20058;-69
2022/12/12 06:44:33;;;;;;;18.60;8.50;;;1.40;99.90;;;;;;5070339;28;20028;-69
2022/12/12 06:46:58;;;;;;;22.30;9.40;;;1.40;99.90;;;;;;5072252;28;20036;-69
2022/12/12 06:49:24;;;;;;;19.90;9.70;;;1.40;99.90;;;;;;5071998;28;20067;-69
2022/12/12 06:51:49;;;;;;;19.95;9.07;;;1.30;99.90;;;;;;5070659;28;20048;-69
2022/12/12 06:54:17;;;;;;;17.90;8.95;;;1.30;99.90;;;;;;5071074;28;20055;-69
2022/12/12 06:56:42;;;;;;;16.40;8.63;;;1.30;99.90;;;;;;5071994;28;20124;-69
2022/12/12 06:59:10;;;;;;;24.25;10.65;;;1.30;99.90;;;;;;5071760;28;20740;-69
2022/12/12 07:01:36;;;;;;;17.90;9.70;;;1.30;99.90;;;;;;5071894;28;20397;-69
2022/12/12 07:04:01;;;;;;;21.10;9.98;;;1.30;99.90;;;;;;5071030;28;20037;-69
2022/12/12 07:06:27;;;;;;;18.67;9.98;;;1.30;99.90;;;;;;5070440;28;20508;-69
2022/12/12 07:08:53;;;;;;;20.00;9.18;;;1.40;99.90;;;;;;5071713;28;20119;-69
2022/12/12 07:11:21;;;;;;;18.02;9.50;;;1.30;99.90;;;;;;5071814;28;20093;-69
2022/12/12 07:13:48;;;;;;;19.65;8.60;;;1.40;99.90;;;;;;5071005;28;20055;-69
2022/12/12 07:16:14;;;;;;;19.95;9.40;;;1.40;99.90;;;;;;5071569;28;20446;-68
2022/12/12 07:18:40;;;;;;;19.35;8.95;;;1.40;99.90;;;;;;5071537;28;20078;-69
2022/12/12 07:21:08;;;;;;;25.15;9.68;;;1.40;99.90;;;;;;5071228;28;20037;-69
2022/12/12 07:23:34;;;;;;;19.70;10.13;;;1.40;99.90;;;;;;5071246;28;20485;-69
2022/12/12 07:26:04;;;;;;;21.00;9.38;;;1.40;99.90;;;;;;5070817;28;20048;-69
2022/12/12 07:28:30;;;;;;;23.63;11.10;;;1.40;99.90;;;;;;5071165;28;20044;-69
2022/12/12 07:30:55;;;;;;;17.23;9.77;;;1.40;99.90;;;;;;5069824;28;20059;-69
2022/12/12 07:33:21;;;;;;;19.70;9.68;;;1.40;99.90;;;;;;5071251;28;20041;-69
2022/12/12 07:35:47;;;;;;;19.38;9.70;;;1.50;99.90;;;;;;5062019;28;20115;-68
2022/12/12 07:38:12;;;;;;;22.70;11.30;;;1.40;99.90;;;;;;5060830;28;20049;-69
2022/12/12 07:40:38;;;;;;;24.85;11.38;;;1.50;99.90;;;;;;5064899;28;20528;-69
2022/12/12 07:43:04;;;;;;;21.40;10.20;;;1.40;99.90;;;;;;5069218;28;20028;-69
2022/12/12 07:45:30;;;;;;;19.95;9.95;;;1.40;99.90;;;;;;5066603;28;20041;-68
2022/12/12 07:47:55;;;;;;;19.00;9.60;;;1.40;99.90;;;;;;5067336;28;20052;-68
2022/12/12 07:50:21;;;;;;;22.70;9.65;;;1.40;99.90;;;;;;5069071;28;20051;-68
2022/12/12 07:52:47;;;;;;;16.23;8.45;;;1.40;99.90;;;;;;5070283;28;20044;-69
2022/12/12 07:55:13;;;;;;;16.33;8.93;;;1.40;99.90;;;;;;5070132;28;20439;-69
2022/12/12 07:57:40;;;;;;;22.40;9.75;;;1.50;99.90;;;;;;5071047;28;20046;-69
2022/12/12 08:00:07;;;;;;;18.48;9.70;;;1.50;99.90;;;;;;5070941;28;20041;-69
2022/12/12 08:02:33;;;;;;;18.30;9.27;;;1.50;99.90;;;;;;5070718;28;20115;-69
2022/12/12 08:04:58;;;;;;;21.58;10.10;;;1.50;99.90;;;;;;5069943;28;20163;-69
2022/12/12 08:07:24;;;;;;;19.45;9.18;;;1.50;99.90;;;;;;5070646;28;20123;-69
2022/12/12 08:09:49;;;;;;;20.33;9.25;;;1.50;99.90;;;;;;5070599;28;20040;-69
2022/12/12 08:12:15;;;;;;;21.65;10.27;;;1.50;99.90;;;;;;5070202;28;20044;-69
2022/12/12 08:14:40;;;;;;;17.15;9.18;;;1.40;99.90;;;;;;5069936;28;20080;-71
2022/12/12 08:17:06;;;;;;;18.50;9.32;;;1.40;99.90;;;;;;5070778;28;20040;-71
2022/12/12 08:19:32;;;;;;;18.40;10.07;;;1.40;99.90;;;;;;5070584;28;20044;-70
2022/12/12 08:21:58;;;;;;;21.42;10.35;;;1.40;99.90;;;;;;5070824;28;20081;-70
2022/12/12 08:24:23;;;;;;;20.13;10.13;;;1.30;99.90;;;;;;5052086;28;20032;-70
2022/12/12 08:26:50;;;;;;;23.77;11.65;;;1.30;99.90;;;;;;5070701;28;20032;-71
2022/12/12 08:29:15;;;;;;;25.92;11.70;;;1.30;99.90;;;;;;5070523;28;20449;-71
2022/12/12 08:31:41;;;;;;;25.48;12.20;;;1.30;99.90;;;;;;5070554;28;20127;-70
2022/12/12 08:34:07;;;;;;;28.90;12.65;;;1.30;99.90;;;;;;5069832;28;20037;-72
2022/12/12 08:36:33;;;;;;;31.17;12.40;;;1.30;99.90;;;;;;5070572;28;20044;-70
2022/12/12 08:39:14;;;;;;;30.85;12.32;;;1.20;99.90;;;;;;5070640;28;20040;-70
2022/12/12 08:41:42;;;;;;;31.95;13.05;;;1.20;99.90;;;;;;5070225;28;20501;-70
2022/12/12 08:44:10;;;;;;;28.63;13.02;;;1.20;99.90;;;;;;5069717;28;20039;-71
2022/12/12 08:46:36;;;;;;;25.05;12.38;;;1.20;99.90;;;;;;5070287;28;20440;-71
2022/12/12 08:49:02;;;;;;;27.42;12.75;;;1.30;99.90;;;;;;5070250;28;20037;-70
2022/12/12 08:51:27;;;;;;;29.23;11.93;;;1.30;99.90;;;;;;5070416;28;20055;-71
2022/12/12 08:53:53;;;;;;;29.17;13.52;;;1.30;99.90;;;;;;5069711;28;20489;-70
2022/12/12 08:56:21;;;;;;;28.77;12.75;;;1.20;99.90;;;;;;5070402;28;20051;-70
2022/12/12 08:58:47;;;;;;;31.95;12.77;;;1.20;99.90;;;;;;5070178;28;20037;-71
2022/12/12 09:01:18;;;;;;;28.42;12.77;;;1.20;99.90;;;;;;5069969;28;20489;-70
2022/12/12 09:03:44;;;;;;;30.35;14.68;;;1.10;99.90;;;;;;5070003;28;20072;-71
2022/12/12 09:06:10;;;;;;;31.05;12.98;;;1.20;99.90;;;;;;5070266;28;20047;-70
2022/12/12 09:08:37;;;;;;;28.33;12.95;;;1.20;99.90;;;;;;5070375;28;20116;-71
2022/12/12 09:11:03;;;;;;;33.58;14.68;;;1.30;99.90;;;;;;5070155;28;20055;-70
2022/12/12 09:13:29;;;;;;;28.77;13.95;;;1.20;99.90;;;;;;5069974;28;20045;-71
2022/12/12 09:15:54;;;;;;;35.70;15.55;;;1.20;99.90;;;;;;5069315;28;20060;-70
2022/12/12 09:18:20;;;;;;;32.92;13.50;;;1.20;99.90;;;;;;5070265;28;20043;-70
2022/12/12 09:20:50;;;;;;;33.10;13.55;;;1.20;99.90;;;;;;5069922;28;20515;-70
2022/12/12 09:23:17;;;;;;;34.40;14.15;;;1.30;99.90;;;;;;5070400;28;20080;-71
2022/12/12 09:25:43;;;;;;;33.25;14.90;;;1.20;99.90;;;;;;5071936;28;20505;-70
2022/12/12 09:28:14;;;;;;;33.70;13.68;;;1.30;99.90;;;;;;5073527;28;20127;-71
2022/12/12 09:30:40;;;;;;;36.55;15.55;;;1.20;99.90;;;;;;5073615;28;20041;-70
2022/12/12 09:33:06;;;;;;;39.17;15.27;;;1.20;99.90;;;;;;5073471;28;20503;-71
2022/12/12 09:35:32;;;;;;;35.55;14.20;;;1.30;99.90;;;;;;5071639;28;20122;-69
2022/12/12 09:37:57;;;;;;;36.03;14.00;;;1.20;99.90;;;;;;5073371;28;20121;-70
2022/12/12 09:40:29;;;;;;;37.75;14.13;;;1.30;99.90;;;;;;5073475;28;20054;-70
2022/12/12 09:42:55;;;;;;;35.33;13.98;;;1.40;99.90;;;;;;5073228;28;20056;-71
2022/12/12 09:45:21;;;;;;;41.13;15.35;;;1.50;99.90;;;;;;5072443;28;20579;-71
2022/12/12 09:47:57;;;;;;;36.55;14.77;;;1.40;99.90;;;;;;5073432;28;20035;-71
2022/12/12 09:50:31;;;;;;;40.83;16.00;;;1.40;99.90;;;;;;5071807;28;20040;-71
2022/12/12 09:53:03;;;;;;;33.38;14.63;;;1.30;99.90;;;;;;5073264;28;20044;-71
2022/12/12 09:55:38;;;;;;;34.75;14.98;;;1.50;99.90;;;;;;5072229;28;20068;-71
2022/12/12 09:58:34;;;;;;;37.17;15.57;;;1.40;99.90;;;;;;5073134;28;20040;-70
2022/12/12 10:01:43;;;;;;;32.38;13.23;;;1.50;99.90;;;;;;5072989;28;20437;-70
2022/12/12 10:04:30;;;;;;;37.17;13.90;;;1.50;99.90;;;;;;5042586;28;20408;-71
2022/12/12 10:07:20;;;;;;;35.53;14.88;;;1.50;99.90;;;;;;5073126;28;20086;-71
2022/12/12 10:10:16;;;;;;;31.58;14.00;;;1.50;99.90;;;;;;5066716;28;20124;-70
2022/12/12 10:12:42;;;;;;;36.47;14.63;;;1.50;99.90;;;;;;5073211;28;20048;-71
2022/12/12 10:15:23;;;;;;;33.67;15.68;;;1.50;99.90;;;;;;5072282;28;20036;-70
2022/12/12 10:17:50;;;;;;;36.30;15.38;;;1.50;99.90;;;;;;5072642;28;20048;-71
2022/12/12 10:20:26;;;;;;;36.38;13.68;;;1.50;99.90;;;;;;5054637;28;20051;-71
2022/12/12 10:23:18;;;;;;;32.80;14.70;;;1.50;99.90;;;;;;5072747;28;20079;-71
2022/12/12 10:26:00;;;;;;;31.42;13.48;;;1.40;99.90;;;;;;5071733;28;20114;-71
2022/12/12 10:28:29;;;;;;;31.83;13.85;;;1.50;99.90;;;;;;5071125;28;20485;-71
2022/12/12 10:30:55;;;;;;;37.05;14.18;;;1.60;99.90;;;;;;5072228;28;20242;-70
2022/12/12 10:33:32;;;;;;;34.47;14.35;;;1.60;99.90;;;;;;5071074;28;20552;-71
2022/12/12 10:36:18;;;;;;;36.33;15.20;;;1.60;99.90;;;;;;5071263;28;20130;-71
2022/12/12 10:39:00;;;;;;;35.28;15.88;;;1.60;99.90;;;;;;5072249;28;20058;-71
2022/12/12 10:41:37;;;;;;;32.17;14.30;;;1.70;99.90;;;;;;5072222;28;20397;-72
2022/12/12 10:44:14;;;;;;;32.00;16.30;;;1.70;99.90;;;;;;5072035;28;20385;-67
2022/12/12 10:46:54;;;;;;;37.03;14.93;;;1.70;99.90;;;;;;5072054;28;20040;-70
2022/12/12 10:49:22;;;;;;;40.17;16.00;;;1.70;99.90;;;;;;5072129;28;20504;-70
2022/12/12 10:51:49;;;;;;;34.60;16.23;;;1.70;99.90;;;;;;5072137;28;20156;-70
2022/12/12 10:54:20;;;;;;;37.22;15.15;;;1.80;99.90;;;;;;5071521;28;20409;-70
2022/12/12 10:57:08;;;;;;;37.03;15.80;;;1.80;99.90;;;;;;5072050;28;20090;-71
2022/12/12 10:59:51;;;;;;;43.45;16.92;;;1.80;99.90;;;;;;5071758;28;20048;-70
2022/12/12 11:02:21;;;;;;;;;;;1.70;99.90;;;;;;5072093;28;20552;-70
2022/12/12 11:04:46;;;;;;;41.55;16.80;;;1.80;99.90;;;;;;5070954;28;19970;-71
2022/12/12 11:07:22;;;;;;;33.25;15.23;;;1.80;99.90;;;;;;5071299;28;20481;-71
2022/12/12 11:09:47;;;;;;;40.95;15.77;;;1.80;99.90;;;;;;5071906;28;20048;-70
2022/12/12 11:12:15;;;;;;;36.20;14.95;;;1.80;99.90;;;;;;5071432;28;20040;-70
2022/12/12 11:14:52;;;;;;;38.30;16.35;;;1.70;99.90;;;;;;5070755;28;20055;-71
2022/12/12 11:17:29;;;;;;;36.15;14.82;;;1.80;99.90;;;;;;5071552;28;20036;-70
2022/12/12 11:20:00;;;;;;;42.50;15.75;;;1.80;99.90;;;;;;5071804;28;20055;-71
2022/12/12 11:22:29;;;;;;;39.95;15.50;;;1.80;99.90;;;;;;5071504;28;20162;-70
2022/12/12 11:24:54;;;;;;;32.03;15.13;;;1.80;99.90;;;;;;5070935;28;20040;-71
2022/12/12 11:27:33;;;;;;;43.25;16.77;;;1.80;99.90;;;;;;5071189;28;20407;-71
2022/12/12 11:30:05;;;;;;;35.95;15.55;;;1.80;99.90;;;;;;5071554;28;20120;-72
2022/12/12 11:32:38;;;;;;;39.28;15.85;;;1.90;99.90;;;;;;5071263;28;20112;-70
2022/12/12 11:35:26;;;;;;;36.75;15.88;;;1.90;99.90;;;;;;5070896;28;20044;-71
2022/12/12 11:37:59;;;;;;;37.88;14.15;;;1.90;99.90;;;;;;5063361;28;20394;-71
2022/12/12 11:40:28;;;;;;;35.85;14.65;;;1.90;99.90;;;;;;5071432;28;20063;-70
2022/12/12 11:43:24;;;;;;;36.85;15.48;;;1.90;99.90;;;;;;5071021;28;20039;-71
2022/12/12 11:46:02;;;;;;;36.10;15.25;;;1.90;99.90;;;;;;5070668;28;20041;-70
2022/12/12 11:48:38;;;;;;;36.10;15.15;;;1.90;99.90;;;;;;5070219;28;20044;-71
2022/12/12 11:51:04;;;;;;;30.55;14.15;;;1.90;99.90;;;;;;5071431;28;20435;-70
2022/12/12 11:53:34;;;;;;;34.13;14.00;;;2.00;99.90;;;;;;5070966;28;20048;-71
2022/12/12 11:56:12;;;;;;;33.97;14.52;;;2.00;99.90;;;;;;5070550;28;20037;-70
2022/12/12 11:58:41;;;;;;;38.03;14.93;;;2.00;99.90;;;;;;5070846;28;20036;-71
2022/12/12 12:01:25;;;;;;;32.70;14.60;;;2.00;99.90;;;;;;5071037;28;20098;-70
2022/12/12 12:04:32;;;;;;;36.88;15.38;;;2.10;99.90;;;;;;5070229;28;20040;-71
2022/12/12 12:07:13;;;;;;;33.97;14.82;;;2.10;99.90;;;;;;5070625;28;20040;-71
2022/12/12 12:10:05;;;;;;;33.45;13.90;;;2.10;99.90;;;;;;5070755;28;20489;-70
2022/12/12 12:12:56;;;;;;;36.28;15.32;;;2.10;99.90;;;;;;5070743;28;20041;-71
2022/12/12 12:15:21;;;;;;;34.03;14.20;;;2.10;99.90;;;;;;5070267;28;20047;-71
2022/12/12 12:18:20;;;;;;;31.60;13.32;;;2.10;99.90;;;;;;5070761;28;20056;-71
2022/12/12 12:21:06;;;;;;;33.90;14.48;;;2.00;99.90;;;;;;5070958;28;20432;-70
2022/12/12 12:23:43;;;;;;;34.22;14.15;;;2.10;99.90;;;;;;5070514;28;20072;-70
2022/12/12 12:26:36;;;;;;;36.00;15.25;;;2.10;99.90;;;;;;5070703;28;20163;-70
2022/12/12 12:29:32;;;;;;;35.85;14.65;;;2.10;99.90;;;;;;5070701;28;20193;-71
2022/12/12 12:32:01;;;;;;;39.35;16.25;;;2.10;99.90;;;;;;5070825;28;20052;-71
2022/12/12 12:34:30;;;;;;;37.38;17.08;;;2.10;99.90;;;;;;5070126;28;20044;-71
2022/12/12 12:37:27;;;;;;;36.55;13.90;;;2.10;99.90;;;;;;5069085;28;20051;-71
2022/12/12 12:40:21;;;;;;;38.10;15.48;;;2.20;99.90;;;;;;5070816;28;20093;-71
2022/12/12 12:43:19;;;;;;;39.42;15.27;;;2.20;99.90;;;;;;5070680;28;20382;-70
2022/12/12 12:46:24;;;;;;;41.40;16.15;;;2.00;99.90;;;;;;5070019;28;20428;-70
2022/12/12 12:48:54;;;;;;;37.65;16.55;;;2.10;99.90;;;;;;5070266;28;20527;-71
2022/12/12 12:51:45;;;;;;;37.03;15.95;;;2.20;99.90;;;;;;5070615;28;20046;-70
2022/12/12 12:54:24;;;;;;;41.00;16.02;;;2.10;99.90;;;;;;5069684;28;20519;-71
2022/12/12 12:57:01;;;;;;;38.75;16.13;;;2.10;99.90;;;;;;5070239;28;20050;-70
2022/12/12 12:59:34;;;;;;;41.60;16.33;;;2.00;99.90;;;;;;5072817;28;20048;-71
2022/12/12 13:02:08;;;;;;;39.75;16.98;;;2.10;99.90;;;;;;5074381;28;20052;-70
2022/12/12 13:04:47;;;;;;;40.90;16.67;;;2.00;99.90;;;;;;5073564;28;20040;-71
2022/12/12 13:07:25;;;;;;;39.08;16.98;;;2.10;99.90;;;;;;5073936;28;20520;-71
2022/12/12 13:10:02;;;;;;;39.70;17.52;;;2.10;99.90;;;;;;5074068;28;20036;-71
2022/12/12 13:12:29;;;;;;;40.92;16.85;;;2.10;99.90;;;;;;5056026;28;20493;-71
2022/12/12 13:15:35;;;;;;;42.38;16.58;;;2.10;99.90;;;;;;5073504;28;20052;-70
2022/12/12 13:18:03;;;;;;;39.38;15.48;;;2.10;99.90;;;;;;5073416;28;20072;-70
2022/12/12 13:20:33;;;;;;;40.70;15.43;;;2.10;99.90;;;;;;5073890;28;20122;-71
2022/12/12 13:23:21;;;;;;;40.22;16.75;;;2.10;99.90;;;;;;5073843;28;20040;-72